Daleville, Mississippi
Current Conditions -  °F | °C
As of 4:56 AM on Thursday 27 Nov 2014 (Local Time) from KNMM Reporting Station
Clear Clear  
Wind Chill: 34°   Ceiling: Unl
Heat Index: 34°   Visibility: 8mi
Dew Point: 30°   Wind: 3mph
Humidity: 85%   Direction: 300°WNW
Pressure: 30.32"   Gusts: NA
Location:  32.57°N, 88.68°W
Report Text: KNMM 271056Z AUTO 30003KT 8SM CLR 01/M01 A3032 RMK AO2 SLP280 T00111011
Loading
Personal Weather Stations






























Interactive Weather Map New forecast layout! Learn more

10-Day Weather Forecast

Advertisements
Track Severe Weather on mobile